Time;durP1;ratioP1;P1;durP2;ratioP2;P2;SDS_P1;SDS_P2;PMS_P1;PMS_P2;Temp;Humidity;BMP_temperature;BMP_pressure;BME280_temperature;BME280_humidity;BME280_pressure;Samples;Min_cycle;Max_cycle;Signal;HPM_P1;HPM_P2
2021/01/27 00:01:06;;;;;;;5.40;0.70;;;6.80;94.80;;;;;;5089283;28;20071;-62
2021/01/27 00:03:37;;;;;;;2.03;0.98;;;6.80;95.10;;;;;;5090702;28;20119;-63
2021/01/27 00:06:07;;;;;;;3.65;0.85;;;6.70;95.30;;;;;;5090067;28;20048;-63
2021/01/27 00:08:34;;;;;;;1.75;1.05;;;6.60;95.80;;;;;;5091512;28;20052;-63
2021/01/27 00:11:04;;;;;;;2.50;0.65;;;6.60;95.70;;;;;;5090510;28;20044;-65
2021/01/27 00:13:31;;;;;;;2.83;0.57;;;6.60;95.80;;;;;;5089925;28;20048;-65
2021/01/27 00:15:59;;;;;;;5.55;0.98;;;6.70;96.00;;;;;;5090991;28;20050;-66
2021/01/27 00:18:27;;;;;;;3.28;0.85;;;6.70;96.40;;;;;;5074418;28;20094;-61
2021/01/27 00:20:55;;;;;;;5.97;1.40;;;6.70;96.30;;;;;;5084740;28;20044;-65
2021/01/27 00:23:23;;;;;;;2.60;0.57;;;6.70;96.20;;;;;;5091178;28;20056;-63
2021/01/27 00:25:51;;;;;;;2.17;0.80;;;6.70;95.30;;;;;;5088192;28;20074;-65
2021/01/27 00:28:22;;;;;;;5.68;0.52;;;6.70;94.60;;;;;;5089339;28;20072;-64
2021/01/27 00:30:49;;;;;;;2.28;0.68;;;6.80;94.80;;;;;;5090734;28;20063;-62
2021/01/27 00:33:19;;;;;;;2.85;2.13;;;6.80;94.30;;;;;;5090056;28;20047;-62
2021/01/27 00:35:49;;;;;;;2.65;0.60;;;6.80;94.10;;;;;;5090160;28;20058;-64
2021/01/27 00:38:26;;;;;;;6.38;1.02;;;6.90;94.10;;;;;;5091395;28;20046;-61
2021/01/27 00:40:55;;;;;;;2.63;0.70;;;6.80;94.20;;;;;;5087537;28;20142;-63
2021/01/27 00:43:31;;;;;;;2.25;0.80;;;6.90;93.70;;;;;;5091351;28;20392;-65
2021/01/27 00:46:02;;;;;;;3.17;0.75;;;6.90;93.90;;;;;;5088245;28;20128;-62
2021/01/27 00:48:33;;;;;;;4.32;1.08;;;7.00;94.20;;;;;;5090352;28;20077;-64
2021/01/27 00:51:10;;;;;;;2.97;0.75;;;7.00;94.20;;;;;;5087895;28;20433;-64
2021/01/27 00:53:41;;;;;;;3.17;0.70;;;7.00;94.30;;;;;;5090355;28;20040;-63
2021/01/27 00:56:12;;;;;;;4.65;1.25;;;7.00;94.40;;;;;;5087156;28;20048;-63
2021/01/27 00:58:44;;;;;;;2.22;0.52;;;7.00;94.20;;;;;;5088805;28;20044;-63
2021/01/27 01:01:23;;;;;;;2.80;0.60;;;7.00;94.40;;;;;;5070778;28;20055;-65
2021/01/27 01:03:53;;;;;;;2.28;0.75;;;7.00;94.80;;;;;;5089971;28;20044;-55
2021/01/27 01:06:22;;;;;;;3.50;0.50;;;7.00;94.30;;;;;;5089738;28;20048;-65
2021/01/27 01:08:49;;;;;;;1.38;1.13;;;7.00;94.10;;;;;;5088874;28;20177;-63
2021/01/27 01:11:17;;;;;;;2.45;0.82;;;7.00;93.70;;;;;;5087565;28;20047;-63
2021/01/27 01:13:44;;;;;;;3.95;0.80;;;7.10;93.50;;;;;;5090383;28;20044;-60
2021/01/27 01:16:12;;;;;;;1.73;1.08;;;7.00;94.00;;;;;;5087932;28;20044;-63
2021/01/27 01:18:39;;;;;;;2.35;0.82;;;7.10;93.80;;;;;;5091598;28;20044;-63
2021/01/27 01:21:07;;;;;;;3.47;0.63;;;7.00;94.10;;;;;;5087632;28;20058;-63
2021/01/27 01:23:37;;;;;;;9.02;1.65;;;7.00;95.10;;;;;;5089555;28;20098;-62
2021/01/27 01:26:06;;;;;;;2.78;0.70;;;6.90;95.90;;;;;;5102289;28;20048;-64
2021/01/27 01:28:34;;;;;;;5.68;1.13;;;6.80;95.50;;;;;;5094213;28;20139;-63
2021/01/27 01:31:02;;;;;;;7.53;2.40;;;6.90;95.20;;;;;;5076544;28;20473;-63
2021/01/27 01:33:33;;;;;;;7.70;1.65;;;6.90;94.90;;;;;;5093891;28;20131;-63
2021/01/27 01:36:00;;;;;;;8.88;1.33;;;6.90;95.30;;;;;;5090669;28;20059;-62
2021/01/27 01:38:34;;;;;;;1.85;0.93;;;6.90;94.90;;;;;;5094140;28;20048;-63
2021/01/27 01:41:08;;;;;;;2.88;0.73;;;6.90;95.20;;;;;;5094310;28;20495;-61
2021/01/27 01:43:41;;;;;;;5.95;1.77;;;6.90;95.00;;;;;;5091714;28;20407;-62
2021/01/27 01:46:20;;;;;;;2.70;0.68;;;6.90;95.20;;;;;;5094677;28;20457;-62
2021/01/27 01:48:56;;;;;;;2.88;0.45;;;7.00;94.90;;;;;;5091448;28;20063;-61
2021/01/27 01:51:48;;;;;;;4.28;0.25;;;7.00;95.10;;;;;;5090800;28;20056;-64
2021/01/27 01:54:39;;;;;;;2.88;0.57;;;7.00;94.30;;;;;;5091779;28;20564;-62
2021/01/27 01:57:19;;;;;;;3.55;0.75;;;6.90;94.30;;;;;;5078621;28;20058;-67
2021/01/27 01:59:59;;;;;;;8.57;2.05;;;6.90;94.70;;;;;;5094393;28;20055;-64
2021/01/27 02:02:42;;;;;;;10.55;0.63;;;6.90;94.60;;;;;;5081510;28;20050;-59
2021/01/27 02:05:15;;;;;;;2.10;1.02;;;7.00;94.40;;;;;;5093876;28;20051;-65
2021/01/27 02:07:43;;;;;;;4.75;0.47;;;6.90;94.20;;;;;;5093477;28;20055;-64
2021/01/27 02:10:14;;;;;;;7.05;0.50;;;7.00;93.70;;;;;;5090112;28;20052;-63
2021/01/27 02:13:09;;;;;;;3.40;1.13;;;7.00;93.80;;;;;;5093384;28;20102;-62
2021/01/27 02:16:03;;;;;;;9.40;0.63;;;7.00;93.70;;;;;;5093178;28;20120;-63
2021/01/27 02:18:52;;;;;;;2.25;0.30;;;7.00;93.00;;;;;;5094258;28;20110;-59
2021/01/27 02:21:40;;;;;;;8.43;0.70;;;7.00;92.80;;;;;;5091743;28;20055;-65
2021/01/27 02:24:22;;;;;;;1.40;0.45;;;7.10;92.10;;;;;;5074121;28;20136;-64
2021/01/27 02:27:08;;;;;;;4.95;1.00;;;7.10;92.50;;;;;;5090404;28;20081;-62
2021/01/27 02:29:39;;;;;;;7.60;0.47;;;7.10;92.50;;;;;;5092852;28;20101;-61
2021/01/27 02:32:48;;;;;;;1.40;0.40;;;7.20;91.20;;;;;;5090764;28;20131;-63
2021/01/27 02:35:31;;;;;;;2.55;0.32;;;7.20;90.50;;;;;;5093279;28;20510;-61
2021/01/27 02:38:34;;;;;;;3.45;0.40;;;7.20;91.00;;;;;;5092275;28;20055;-60
2021/01/27 02:41:19;;;;;;;7.13;1.40;;;7.20;91.30;;;;;;5090760;28;20044;-64
2021/01/27 02:43:55;;;;;;;2.92;0.50;;;7.10;91.70;;;;;;5090606;28;20518;-64
2021/01/27 02:46:47;;;;;;;3.85;1.05;;;7.10;91.60;;;;;;5088247;28;20071;-62
2021/01/27 02:49:28;;;;;;;4.78;0.35;;;7.00;92.30;;;;;;5074751;28;20070;-62
2021/01/27 02:52:04;;;;;;;2.80;0.65;;;7.00;91.80;;;;;;5091639;28;20048;-64
2021/01/27 02:54:48;;;;;;;3.30;0.50;;;7.10;91.70;;;;;;5091017;28;20044;-66
2021/01/27 02:57:21;;;;;;;2.05;0.40;;;7.00;91.90;;;;;;5089772;28;20048;-62
2021/01/27 03:00:06;;;;;;;2.45;0.52;;;7.00;92.10;;;;;;5091087;28;20074;-63
2021/01/27 03:03:03;;;;;;;0.90;0.40;;;7.00;92.50;;;;;;5091583;28;20127;-65
2021/01/27 03:05:34;;;;;;;;;;;6.90;92.60;;;;;;5089924;28;20048;-64
2021/01/27 03:08:10;;;;;;;6.57;1.42;;;7.00;92.60;;;;;;5092402;28;19963;-62
2021/01/27 03:10:44;;;;;;;1.63;0.60;;;6.90;92.80;;;;;;5089571;28;20080;-60
2021/01/27 03:13:12;;;;;;;11.50;1.48;;;6.90;92.80;;;;;;5092423;28;20048;-65
2021/01/27 03:15:40;;;;;;;5.88;1.23;;;7.00;92.90;;;;;;5090608;28;20058;-63
2021/01/27 03:18:14;;;;;;;3.65;0.55;;;7.00;93.00;;;;;;5092904;28;20048;-64
2021/01/27 03:20:46;;;;;;;0.88;0.40;;;6.90;92.70;;;;;;5090831;28;20071;-63
2021/01/27 03:23:26;;;;;;;2.05;0.75;;;6.90;92.20;;;;;;5082402;28;20056;-61
2021/01/27 03:26:01;;;;;;;1.95;0.30;;;6.90;92.10;;;;;;5066302;28;20044;-61
2021/01/27 03:28:56;;;;;;;3.47;0.40;;;7.00;91.90;;;;;;5062921;28;20040;-60
2021/01/27 03:31:25;;;;;;;1.52;0.47;;;7.00;91.70;;;;;;5089536;28;20093;-63
2021/01/27 03:34:03;;;;;;;6.70;0.65;;;7.10;91.40;;;;;;5085857;28;20088;-60
2021/01/27 03:36:41;;;;;;;5.30;0.38;;;7.10;90.70;;;;;;5050492;28;20511;-63
2021/01/27 03:39:14;;;;;;;4.35;1.13;;;7.10;90.50;;;;;;5066970;28;20503;-62
2021/01/27 03:41:57;;;;;;;4.38;1.00;;;7.10;90.60;;;;;;5071781;28;20437;-62
2021/01/27 03:44:30;;;;;;;1.00;0.43;;;7.00;90.90;;;;;;5073975;28;20055;-59
2021/01/27 03:47:09;;;;;;;1.30;0.50;;;7.00;90.70;;;;;;5073054;28;20056;-63
2021/01/27 03:49:48;;;;;;;5.75;0.73;;;7.00;91.00;;;;;;5071426;28;20049;-57
2021/01/27 03:52:39;;;;;;;2.83;0.40;;;7.00;91.30;;;;;;5070802;28;20049;-61
2021/01/27 03:55:58;;;;;;;2.72;0.70;;;7.00;91.80;;;;;;5071684;28;20051;-57
2021/01/27 03:58:36;;;;;;;1.92;0.40;;;7.00;92.10;;;;;;5071982;28;20059;-59
2021/01/27 04:01:18;;;;;;;3.42;0.45;;;7.00;91.90;;;;;;5066114;28;20083;-58
2021/01/27 04:03:55;;;;;;;1.88;0.30;;;6.90;92.30;;;;;;5070447;28;20416;-63
2021/01/27 04:06:25;;;;;;;2.42;0.88;;;6.90;91.90;;;;;;5070178;28;20080;-58
2021/01/27 04:08:56;;;;;;;1.90;0.43;;;6.90;91.80;;;;;;5070215;28;20048;-61
2021/01/27 04:11:28;;;;;;;1.65;0.30;;;6.90;90.00;;;;;;5070353;28;20079;-64
2021/01/27 04:14:07;;;;;;;1.90;0.93;;;6.90;89.90;;;;;;5069599;28;20524;-63
2021/01/27 04:16:43;;;;;;;3.75;0.77;;;6.80;89.70;;;;;;5065459;28;20071;-63
2021/01/27 04:19:10;;;;;;;3.72;0.82;;;6.80;90.20;;;;;;5069589;28;20047;-67
2021/01/27 04:21:42;;;;;;;4.10;0.40;;;6.80;90.10;;;;;;5070791;28;20483;-62
2021/01/27 04:24:10;;;;;;;1.50;0.68;;;6.70;90.10;;;;;;5068693;28;20529;-62
2021/01/27 04:26:38;;;;;;;1.33;0.40;;;6.70;90.00;;;;;;5070325;28;20055;-62
2021/01/27 04:29:05;;;;;;;1.45;0.30;;;6.80;90.30;;;;;;5071291;28;20483;-63
2021/01/27 04:31:33;;;;;;;5.15;0.52;;;6.70;90.60;;;;;;5068599;28;20419;-59
2021/01/27 04:34:00;;;;;;;5.35;0.82;;;6.70;90.70;;;;;;5069006;28;20075;-56
2021/01/27 04:36:34;;;;;;;1.00;0.32;;;6.70;90.90;;;;;;5068011;28;20041;-61
2021/01/27 04:39:04;;;;;;;2.08;0.35;;;6.70;91.00;;;;;;5071045;28;20044;-65
2021/01/27 04:41:35;;;;;;;3.90;0.50;;;6.70;91.30;;;;;;5070737;28;20043;-61
2021/01/27 04:44:03;;;;;;;1.00;0.30;;;6.70;91.80;;;;;;5078302;28;20106;-62
2021/01/27 04:46:36;;;;;;;2.38;0.73;;;6.70;91.20;;;;;;5070824;28;20045;-63
2021/01/27 04:49:20;;;;;;;1.75;0.43;;;6.70;91.60;;;;;;5068837;28;20071;-63
2021/01/27 04:52:01;;;;;;;1.38;0.50;;;6.80;91.70;;;;;;5070440;28;20131;-59
2021/01/27 04:54:55;;;;;;;6.40;0.60;;;6.70;91.90;;;;;;5073607;28;20044;-61
2021/01/27 04:57:38;;;;;;;3.55;0.40;;;6.70;92.20;;;;;;5064619;28;20126;-63
2021/01/27 05:00:12;;;;;;;6.55;0.77;;;6.70;92.30;;;;;;5069549;28;20049;-63
2021/01/27 05:03:23;;;;;;;4.93;0.50;;;6.70;92.30;;;;;;5069282;28;20497;-64
2021/01/27 05:05:59;;;;;;;0.98;0.70;;;6.80;92.50;;;;;;5068590;28;20057;-63
2021/01/27 05:08:31;;;;;;;7.70;0.43;;;6.80;92.30;;;;;;5031776;28;20135;-64
2021/01/27 05:11:05;;;;;;;4.57;0.88;;;6.80;92.80;;;;;;5060603;28;20053;-61
2021/01/27 05:13:34;;;;;;;1.60;0.38;;;6.70;92.70;;;;;;5068484;28;20091;-63
2021/01/27 05:16:17;;;;;;;1.60;0.60;;;6.70;92.60;;;;;;5068014;28;20224;-63
2021/01/27 05:18:48;;;;;;;3.70;0.65;;;6.70;92.60;;;;;;5049079;28;20073;-64
2021/01/27 05:21:37;;;;;;;3.63;0.50;;;6.70;92.70;;;;;;5066516;28;20037;-63
2021/01/27 05:24:08;;;;;;;2.42;0.50;;;6.70;92.50;;;;;;5081204;28;20080;-53
2021/01/27 05:26:47;;;;;;;5.95;0.40;;;6.60;92.70;;;;;;5071154;28;20190;-62
2021/01/27 05:29:25;;;;;;;4.25;0.28;;;6.60;92.90;;;;;;5071805;28;20403;-56
2021/01/27 05:32:11;;;;;;;3.97;0.40;;;6.60;92.70;;;;;;5069777;28;20059;-58
2021/01/27 05:34:44;;;;;;;3.97;0.50;;;6.70;92.60;;;;;;5071423;28;20524;-64
2021/01/27 05:37:16;;;;;;;2.13;0.47;;;6.70;92.70;;;;;;5070502;28;20465;-64
2021/01/27 05:39:50;;;;;;;2.40;1.33;;;6.70;93.10;;;;;;5069992;28;20420;-54
2021/01/27 05:42:29;;;;;;;3.83;0.63;;;6.60;93.10;;;;;;5070628;28;20147;-62
2021/01/27 05:45:19;;;;;;;2.13;0.30;;;6.60;93.10;;;;;;5069258;28;20504;-62
2021/01/27 05:47:47;;;;;;;1.88;0.40;;;6.60;93.20;;;;;;5068710;28;20048;-63
2021/01/27 05:50:23;;;;;;;5.47;1.00;;;6.50;92.90;;;;;;5071254;28;20086;-65
2021/01/27 05:52:50;;;;;;;2.88;0.60;;;6.60;92.90;;;;;;5070100;28;20041;-54
2021/01/27 05:55:18;;;;;;;4.80;0.95;;;6.60;93.20;;;;;;5071739;28;20064;-58
2021/01/27 05:57:58;;;;;;;5.13;0.38;;;6.60;93.40;;;;;;5071160;28;20040;-55
2021/01/27 06:00:28;;;;;;;0.35;0.20;;;6.60;93.90;;;;;;5070636;28;20484;-62
2021/01/27 06:03:03;;;;;;;1.88;0.60;;;6.60;93.80;;;;;;5071920;28;20136;-55
2021/01/27 06:05:37;;;;;;;21.17;1.10;;;6.60;94.10;;;;;;5073255;28;20056;-57
2021/01/27 06:08:20;;;;;;;5.53;1.40;;;6.60;94.40;;;;;;5070960;28;20161;-63
2021/01/27 06:10:50;;;;;;;3.20;0.70;;;6.60;94.30;;;;;;5071929;28;20053;-64
2021/01/27 06:13:23;;;;;;;5.82;2.05;;;6.60;94.50;;;;;;5071965;28;20052;-63
2021/01/27 06:15:50;;;;;;;7.18;1.10;;;6.70;94.50;;;;;;5075556;28;20491;-64
2021/01/27 06:18:22;;;;;;;2.88;1.25;;;6.70;94.50;;;;;;5075933;28;20049;-64
2021/01/27 06:21:02;;;;;;;4.00;0.47;;;6.70;94.60;;;;;;5075228;28;20052;-64
2021/01/27 06:23:53;;;;;;;8.70;0.73;;;6.70;94.60;;;;;;5075564;28;20048;-64
2021/01/27 06:26:44;;;;;;;1.73;0.90;;;6.70;94.10;;;;;;5076946;28;20049;-64
2021/01/27 06:29:27;;;;;;;7.10;0.60;;;6.80;94.10;;;;;;5076022;28;20051;-64
2021/01/27 06:32:18;;;;;;;2.50;0.50;;;6.80;93.90;;;;;;5071223;28;20072;-63
2021/01/27 06:35:03;;;;;;;2.22;0.50;;;6.80;93.30;;;;;;5064804;28;20041;-64
2021/01/27 06:38:03;;;;;;;2.15;0.50;;;6.90;93.40;;;;;;5074959;28;20391;-64
2021/01/27 06:41:04;;;;;;;1.70;0.63;;;6.90;93.80;;;;;;5073640;28;20048;-63
2021/01/27 06:44:00;;;;;;;1.42;1.15;;;6.90;93.30;;;;;;5074640;28;20044;-65
2021/01/27 06:46:49;;;;;;;2.05;0.47;;;6.90;93.30;;;;;;5075234;28;20122;-61
2021/01/27 06:49:50;;;;;;;3.10;0.80;;;7.10;92.80;;;;;;5074863;28;20546;-63
2021/01/27 06:52:42;;;;;;;11.07;2.45;;;7.10;92.60;;;;;;5074517;28;20147;-64
2021/01/27 06:55:21;;;;;;;1.95;0.50;;;7.20;92.60;;;;;;5073787;28;20052;-64
2021/01/27 06:58:01;;;;;;;6.35;1.25;;;7.20;92.40;;;;;;5073656;28;20051;-64
2021/01/27 07:00:53;;;;;;;3.03;0.30;;;7.20;91.70;;;;;;5074475;28;20048;-66
2021/01/27 07:03:46;;;;;;;1.42;0.38;;;7.20;91.90;;;;;;5074786;28;20049;-65
2021/01/27 07:06:38;;;;;;;4.57;0.40;;;7.20;92.20;;;;;;5094314;28;20168;-64
2021/01/27 07:09:31;;;;;;;2.33;0.65;;;7.20;91.90;;;;;;5075030;28;20454;-59
2021/01/27 07:12:05;;;;;;;4.10;0.50;;;7.10;92.50;;;;;;5077278;28;20056;-61
2021/01/27 07:14:43;;;;;;;5.28;1.23;;;7.00;92.40;;;;;;5065069;28;20587;-63
2021/01/27 07:17:57;;;;;;;5.65;1.70;;;7.10;92.20;;;;;;5073122;28;20044;-64
2021/01/27 07:20:33;;;;;;;2.03;0.30;;;7.20;91.70;;;;;;5073241;28;20089;-61
2021/01/27 07:23:20;;;;;;;4.50;0.32;;;7.20;91.60;;;;;;5040186;28;20507;-61
2021/01/27 07:25:58;;;;;;;4.22;0.32;;;7.30;91.50;;;;;;5073078;28;20577;-63
2021/01/27 07:28:35;;;;;;;1.45;0.82;;;7.40;91.70;;;;;;5074483;28;20522;-62
2021/01/27 07:31:54;;;;;;;0.70;0.30;;;7.60;91.50;;;;;;5056235;28;20054;-61
2021/01/27 07:34:50;;;;;;;2.95;0.57;;;7.70;91.40;;;;;;5068365;28;20415;-61
2021/01/27 07:37:36;;;;;;;5.25;0.50;;;8.00;91.40;;;;;;5072544;28;20061;-63
2021/01/27 07:40:07;;;;;;;2.35;0.30;;;8.20;91.40;;;;;;5070723;28;20091;-62
2021/01/27 07:42:56;;;;;;;9.70;0.82;;;8.20;91.20;;;;;;5073544;28;20060;-60
2021/01/27 07:45:29;;;;;;;1.02;0.30;;;8.30;91.60;;;;;;5072705;28;20499;-61
2021/01/27 07:47:59;;;;;;;15.68;0.85;;;8.40;91.60;;;;;;5073850;28;20050;-63
2021/01/27 07:50:27;;;;;;;1.48;0.80;;;8.50;91.60;;;;;;5058553;28;20424;-62
2021/01/27 07:53:12;;;;;;;9.85;1.85;;;8.40;90.70;;;;;;5065379;28;20055;-61
2021/01/27 07:55:58;;;;;;;4.00;0.70;;;8.40;90.80;;;;;;5071198;28;20045;-61
2021/01/27 07:58:45;;;;;;;2.58;0.35;;;8.40;90.90;;;;;;5055595;28;20045;-61
2021/01/27 08:01:19;;;;;;;2.85;0.50;;;8.50;90.60;;;;;;5069159;28;20059;-61
2021/01/27 08:04:03;;;;;;;3.00;0.40;;;8.60;90.80;;;;;;5055602;28;20052;-62
2021/01/27 08:06:46;;;;;;;0.63;0.20;;;8.70;90.30;;;;;;5073165;28;20090;-61
2021/01/27 08:09:46;;;;;;;1.55;0.22;;;8.80;90.50;;;;;;5055078;28;20074;-62
2021/01/27 08:12:32;;;;;;;4.03;1.63;;;8.90;90.60;;;;;;5046029;28;20576;-60
2021/01/27 08:15:06;;;;;;;2.80;0.60;;;8.80;90.30;;;;;;5055360;28;20053;-59
2021/01/27 08:17:46;;;;;;;3.20;1.45;;;8.90;91.10;;;;;;5028366;28;20050;-62
2021/01/27 08:20:20;;;;;;;2.13;0.60;;;9.00;90.70;;;;;;5039036;28;20044;-62
2021/01/27 08:23:00;;;;;;;5.95;0.60;;;9.10;89.90;;;;;;5055846;28;20056;-63
2021/01/27 08:25:55;;;;;;;1.65;0.30;;;9.20;90.00;;;;;;5071890;28;20101;-61
2021/01/27 08:28:38;;;;;;;3.13;0.60;;;9.20;88.30;;;;;;5055624;28;20118;-61
2021/01/27 08:31:08;;;;;;;1.00;0.30;;;9.20;89.00;;;;;;5053564;28;20048;-59
2021/01/27 08:33:53;;;;;;;5.10;1.35;;;9.20;89.10;;;;;;5055270;28;20045;-61
2021/01/27 08:36:31;;;;;;;6.35;1.35;;;9.10;94.10;;;;;;5036971;28;20159;-61
2021/01/27 08:39:02;;;;;;;4.10;0.80;;;8.90;95.50;;;;;;5068606;28;20504;-62
2021/01/27 08:41:57;;;;;;;5.32;1.67;;;8.60;96.30;;;;;;5055114;28;20114;-61
2021/01/27 08:44:40;;;;;;;581.83;297.10;;;8.60;96.60;;;;;;5062953;28;20051;-61
2021/01/27 08:47:43;;;;;;;594.70;303.77;;;8.40;95.80;;;;;;5038224;28;20068;-62
2021/01/27 08:50:44;;;;;;;99.47;60.13;;;8.40;96.40;;;;;;5036161;28;20525;-61
2021/01/27 08:53:27;;;;;;;42.30;26.25;;;8.60;96.90;;;;;;5053229;28;20546;-62
2021/01/27 08:55:57;;;;;;;18.45;8.07;;;8.80;96.90;;;;;;5067902;28;20072;-58
2021/01/27 08:58:35;;;;;;;10.55;3.92;;;8.90;96.70;;;;;;5053316;28;20139;-62
2021/01/27 09:01:31;;;;;;;6.10;2.85;;;9.00;96.90;;;;;;5071027;28;20055;-61
2021/01/27 09:04:02;;;;;;;10.73;5.00;;;9.00;96.90;;;;;;5038462;28;20040;-60
2021/01/27 09:06:47;;;;;;;4.53;1.80;;;9.10;97.30;;;;;;5071113;28;20536;-63
2021/01/27 09:09:20;;;;;;;9.68;4.95;;;8.90;97.00;;;;;;5071150;28;20067;-60
2021/01/27 09:11:47;;;;;;;6.68;2.97;;;8.90;97.80;;;;;;5054238;28;20491;-60
2021/01/27 09:14:18;;;;;;;8.15;1.45;;;8.90;97.50;;;;;;5038140;28;20052;-62
2021/01/27 09:16:47;;;;;;;4.70;1.63;;;8.90;97.70;;;;;;5070756;28;20037;-60
2021/01/27 09:19:17;;;;;;;12.18;7.43;;;9.20;97.90;;;;;;5037934;28;20072;-62
2021/01/27 09:22:03;;;;;;;6.72;2.70;;;9.10;96.90;;;;;;5055540;28;20051;-62
2021/01/27 09:24:40;;;;;;;33.28;15.50;;;9.00;96.80;;;;;;5062381;28;20055;-61
2021/01/27 09:27:24;;;;;;;17.30;8.88;;;9.10;97.40;;;;;;5054388;28;20083;-62
2021/01/27 09:30:07;;;;;;;5.35;1.98;;;9.00;98.10;;;;;;5070703;28;20055;-61
2021/01/27 09:32:35;;;;;;;3.63;1.30;;;8.90;98.40;;;;;;5053277;28;20056;-63
2021/01/27 09:35:23;;;;;;;7.90;3.10;;;9.20;97.60;;;;;;5037247;28;20049;-62
2021/01/27 09:38:00;;;;;;;6.97;2.22;;;9.40;97.40;;;;;;5051344;28;20045;-62
2021/01/27 09:40:33;;;;;;;10.55;5.25;;;9.50;97.70;;;;;;5067788;28;20496;-63
2021/01/27 09:43:06;;;;;;;4.63;1.33;;;9.60;97.90;;;;;;5069335;28;20057;-61
2021/01/27 09:45:35;;;;;;;5.53;1.02;;;9.30;97.40;;;;;;5036217;28;20187;-60
2021/01/27 09:48:04;;;;;;;2.40;0.80;;;9.40;98.20;;;;;;5068336;28;20044;-63
2021/01/27 09:50:43;;;;;;;6.90;1.77;;;9.60;98.60;;;;;;5040991;28;20056;-61
2021/01/27 09:53:25;;;;;;;3.50;1.92;;;9.70;97.90;;;;;;5041756;28;20048;-61
2021/01/27 09:55:56;;;;;;;8.35;4.47;;;9.90;97.50;;;;;;5058130;28;20411;-62
2021/01/27 09:58:24;;;;;;;7.00;4.07;;;9.90;97.10;;;;;;5043166;28;20481;-62
2021/01/27 10:01:00;;;;;;;16.95;6.32;;;10.00;96.90;;;;;;5034379;28;20539;-61
2021/01/27 10:03:45;;;;;;;14.70;9.73;;;10.10;97.10;;;;;;5058864;28;20499;-62
2021/01/27 10:06:31;;;;;;;12.25;3.67;;;10.00;96.70;;;;;;5058471;28;20507;-59
2021/01/27 10:09:01;;;;;;;10.30;6.30;;;9.90;96.10;;;;;;5041456;28;20048;-62
2021/01/27 10:11:32;;;;;;;2.97;1.77;;;10.00;96.80;;;;;;5071562;28;20052;-60
2021/01/27 10:14:13;;;;;;;8.25;4.35;;;10.20;97.10;;;;;;5057752;28;20502;-62
2021/01/27 10:16:59;;;;;;;3.50;2.28;;;10.50;97.20;;;;;;5074662;28;20053;-61
2021/01/27 10:19:49;;;;;;;2.25;0.80;;;10.50;96.40;;;;;;5041554;28;20057;-61
2021/01/27 10:22:29;;;;;;;3.10;1.27;;;9.90;96.50;;;;;;5054633;28;20084;-62
2021/01/27 10:25:00;;;;;;;1.58;1.02;;;9.40;97.10;;;;;;5094331;28;20056;-62
2021/01/27 10:27:39;;;;;;;2.08;0.90;;;9.00;97.70;;;;;;5062173;28;20506;-60
2021/01/27 10:30:31;;;;;;;3.05;0.98;;;8.90;97.50;;;;;;5078176;28;20059;-61
2021/01/27 10:33:02;;;;;;;4.05;0.80;;;8.70;97.60;;;;;;5078018;28;20498;-61
2021/01/27 10:35:33;;;;;;;6.43;2.70;;;8.80;97.10;;;;;;5078119;28;20048;-61
2021/01/27 10:38:05;;;;;;;7.60;3.20;;;8.70;96.80;;;;;;5060938;28;20044;-61
2021/01/27 10:40:33;;;;;;;7.60;4.05;;;8.40;97.20;;;;;;5086973;28;20040;-63
2021/01/27 10:43:24;;;;;;;7.05;3.33;;;8.20;97.50;;;;;;5069972;28;20057;-61
2021/01/27 10:46:19;;;;;;;2.78;1.00;;;8.00;97.80;;;;;;5058451;28;20056;-62
2021/01/27 10:48:50;;;;;;;2.33;0.90;;;7.70;98.50;;;;;;5058346;28;20048;-59
2021/01/27 10:51:23;;;;;;;1.70;0.40;;;7.60;98.60;;;;;;5036326;28;20053;-62
2021/01/27 10:53:51;;;;;;;4.60;0.95;;;7.40;98.90;;;;;;5056912;28;20086;-61
2021/01/27 10:56:23;;;;;;;6.13;3.58;;;7.40;99.20;;;;;;5055313;28;20075;-61
2021/01/27 10:58:51;;;;;;;9.60;5.40;;;7.30;99.30;;;;;;5073472;28;20045;-61
2021/01/27 11:01:18;;;;;;;2.28;0.73;;;7.60;99.90;;;;;;5072296;28;20124;-62
2021/01/27 11:03:47;;;;;;;4.97;1.38;;;7.70;98.90;;;;;;5055036;28;20052;-58
2021/01/27 11:06:15;;;;;;;3.63;2.13;;;7.90;98.50;;;;;;5039906;28;20086;-60
2021/01/27 11:08:52;;;;;;;6.97;3.58;;;8.30;98.40;;;;;;5071693;28;20625;-61
2021/01/27 11:11:23;;;;;;;5.22;3.03;;;8.50;98.10;;;;;;5037042;28;20072;-62
2021/01/27 11:13:54;;;;;;;3.80;2.47;;;8.50;98.10;;;;;;5055643;28;20052;-62
2021/01/27 11:16:23;;;;;;;4.13;1.80;;;8.40;98.30;;;;;;5040443;28;20048;-62
2021/01/27 11:18:51;;;;;;;6.30;3.33;;;8.40;98.90;;;;;;5056564;28;20079;-61
2021/01/27 11:21:19;;;;;;;4.32;2.15;;;8.30;99.10;;;;;;5072519;28;20044;-62
2021/01/27 11:23:46;;;;;;;3.90;1.92;;;8.30;99.40;;;;;;5057637;28;20044;-62
2021/01/27 11:26:26;;;;;;;7.50;0.65;;;8.20;98.00;;;;;;5053098;28;20530;-62
2021/01/27 11:28:54;;;;;;;3.22;1.20;;;8.10;98.60;;;;;;5056056;28;20049;-61
2021/01/27 11:31:24;;;;;;;6.28;2.45;;;7.90;99.10;;;;;;5072132;28;20061;-61
2021/01/27 11:33:53;;;;;;;9.63;3.28;;;7.60;99.70;;;;;;5073312;28;20040;-61
2021/01/27 11:36:22;;;;;;;1.95;0.40;;;7.20;99.50;;;;;;5049442;28;20048;-60
2021/01/27 11:38:53;;;;;;;1.48;0.10;;;7.10;99.90;;;;;;5052928;28;20110;-59
2021/01/27 11:41:29;;;;;;;1.27;0.35;;;7.00;99.90;;;;;;5071801;28;20117;-60
2021/01/27 11:43:57;;;;;;;1.65;0.20;;;7.10;99.90;;;;;;5063482;28;20040;-60
2021/01/27 11:46:36;;;;;;;1.30;0.30;;;7.10;99.90;;;;;;5057735;28;20055;-61
2021/01/27 11:49:04;;;;;;;0.73;0.20;;;7.10;99.90;;;;;;5072509;28;20044;-60
2021/01/27 11:51:35;;;;;;;1.45;0.90;;;7.00;99.90;;;;;;5071564;28;20060;-62
2021/01/27 11:54:03;;;;;;;2.33;0.28;;;7.00;99.90;;;;;;5074468;28;20128;-60
2021/01/27 11:56:35;;;;;;;1.55;0.32;;;7.00;99.90;;;;;;5072449;28;20120;-60
2021/01/27 11:59:07;;;;;;;0.50;0.20;;;7.30;99.90;;;;;;5033320;28;20518;-61
2021/01/27 12:01:37;;;;;;;0.80;0.50;;;7.30;99.90;;;;;;5055009;28;20056;-61
2021/01/27 12:04:05;;;;;;;3.58;0.60;;;7.70;99.90;;;;;;5055101;28;20162;-61
2021/01/27 12:06:44;;;;;;;2.38;0.35;;;8.30;99.90;;;;;;5057095;28;20052;-61
2021/01/27 12:09:12;;;;;;;5.05;1.10;;;8.80;99.90;;;;;;5039598;28;20056;-61
2021/01/27 12:11:40;;;;;;;3.97;1.20;;;9.20;99.90;;;;;;5054907;28;20052;-57
2021/01/27 12:14:10;;;;;;;5.70;2.30;;;9.70;99.90;;;;;;5055940;28;20044;-60
2021/01/27 12:16:38;;;;;;;2.72;1.23;;;9.90;99.90;;;;;;5055968;28;20113;-58
2021/01/27 12:19:06;;;;;;;3.97;1.25;;;9.90;96.90;;;;;;5055576;28;20066;-59
2021/01/27 12:21:34;;;;;;;2.25;0.40;;;9.70;96.10;;;;;;5070118;28;20052;-61
2021/01/27 12:24:07;;;;;;;5.63;0.50;;;9.50;96.00;;;;;;5071534;28;20515;-62
2021/01/27 12:26:35;;;;;;;3.08;1.10;;;9.50;96.30;;;;;;5055213;28;20051;-62
2021/01/27 12:29:03;;;;;;;4.50;1.27;;;9.70;95.20;;;;;;5054995;28;20056;-61
2021/01/27 12:31:31;;;;;;;4.07;1.98;;;9.80;95.60;;;;;;5050189;28;20053;-60
2021/01/27 12:34:00;;;;;;;3.88;1.02;;;9.90;95.00;;;;;;5060440;28;20467;-62
2021/01/27 12:36:28;;;;;;;3.60;1.52;;;9.80;94.10;;;;;;5055002;28;20040;-62
2021/01/27 12:38:55;;;;;;;2.47;0.93;;;9.80;93.90;;;;;;5071372;28;20129;-63
2021/01/27 12:41:23;;;;;;;3.78;0.50;;;9.70;94.00;;;;;;5054393;28;20041;-63
2021/01/27 12:44:01;;;;;;;2.53;0.85;;;9.70;94.60;;;;;;5056387;28;20052;-60
2021/01/27 12:46:35;;;;;;;5.07;0.95;;;9.60;94.50;;;;;;5055798;28;20151;-62
2021/01/27 12:49:03;;;;;;;1.38;0.30;;;9.30;95.10;;;;;;5071934;28;20518;-62
2021/01/27 12:51:31;;;;;;;3.50;1.50;;;8.60;96.70;;;;;;5054178;28;20139;-62
2021/01/27 12:53:59;;;;;;;3.42;0.82;;;8.10;98.30;;;;;;5054971;28;20057;-62
2021/01/27 12:56:27;;;;;;;0.65;0.30;;;7.70;99.90;;;;;;5038560;28;20037;-62
2021/01/27 12:58:55;;;;;;;3.53;2.67;;;7.40;99.90;;;;;;5054320;28;20097;-60
2021/01/27 13:01:23;;;;;;;3.00;1.75;;;7.30;99.90;;;;;;5070474;28;20048;-58
2021/01/27 13:03:51;;;;;;;4.25;1.23;;;7.10;99.90;;;;;;5071207;28;20462;-60
2021/01/27 13:06:19;;;;;;;4.03;1.25;;;7.10;99.90;;;;;;5038295;28;20055;-63
2021/01/27 13:08:51;;;;;;;4.63;0.60;;;7.10;99.90;;;;;;5054659;28;20052;-62
2021/01/27 13:11:18;;;;;;;3.25;0.77;;;7.10;99.90;;;;;;5054186;28;20420;-61
2021/01/27 13:13:46;;;;;;;1.27;0.52;;;7.00;99.90;;;;;;5054746;28;20072;-63
2021/01/27 13:16:14;;;;;;;0.45;0.22;;;6.70;99.90;;;;;;5070931;28;20408;-60
2021/01/27 13:18:42;;;;;;;1.25;0.20;;;6.50;99.90;;;;;;5054993;28;20506;-63
2021/01/27 13:21:10;;;;;;;2.03;0.73;;;6.50;99.90;;;;;;5070655;28;20071;-63
2021/01/27 13:23:37;;;;;;;2.15;0.40;;;6.70;99.90;;;;;;5073954;28;20130;-57
2021/01/27 13:26:08;;;;;;;1.73;0.40;;;6.80;99.90;;;;;;5055111;28;20464;-62
2021/01/27 13:28:36;;;;;;;29.75;13.68;;;6.90;99.90;;;;;;5038648;28;20048;-63
2021/01/27 13:31:06;;;;;;;141.88;73.65;;;7.10;99.90;;;;;;5055865;28;20466;-62
2021/01/27 13:33:34;;;;;;;78.68;40.60;;;7.20;99.90;;;;;;5071722;28;20060;-62
2021/01/27 13:36:02;;;;;;;31.73;17.75;;;7.10;99.90;;;;;;5072035;28;20508;-62
2021/01/27 13:38:36;;;;;;;10.30;7.90;;;7.10;99.90;;;;;;5071576;28;20049;-62
2021/01/27 13:41:07;;;;;;;20.90;13.35;;;7.00;99.90;;;;;;5071182;28;20408;-62
2021/01/27 13:43:42;;;;;;;9.05;5.72;;;7.00;99.90;;;;;;5077533;28;20131;-61